Time;durP1;ratioP1;P1;durP2;ratioP2;P2;SDS_P1;SDS_P2;PMS_P1;PMS_P2;Temp;Humidity;BMP_temperature;BMP_pressure;BME280_temperature;BME280_humidity;BME280_pressure;Samples;Min_cycle;Max_cycle;Signal;HPM_P1;HPM_P2
2020/12/04 00:00:11;;;;;;;8.63;7.75;;;;;;;4.17;93.36;98224.34;5065862;28;20062;-69
2020/12/04 00:02:37;;;;;;;7.30;6.60;;;;;;;4.17;93.67;98197.13;5045308;28;20516;-69
2020/12/04 00:05:04;;;;;;;7.05;6.35;;;;;;;4.15;94.38;98186.75;5062677;28;20115;-69
2020/12/04 00:07:29;;;;;;;7.57;6.88;;;;;;;3.98;93.81;98163.13;5065074;28;20616;-69
2020/12/04 00:09:55;;;;;;;7.97;6.45;;;;;;;4.12;94.35;98176.56;5063024;28;20111;-69
2020/12/04 00:12:21;;;;;;;7.15;6.20;;;;;;;4.01;94.16;98151.41;5061214;28;20085;-69
2020/12/04 00:14:46;;;;;;;6.80;6.10;;;;;;;4.17;93.62;98176.81;5062190;28;20123;-69
2020/12/04 00:17:12;;;;;;;5.63;5.13;;;;;;;4.17;93.83;98176.81;5064165;28;20065;-69
2020/12/04 00:19:38;;;;;;;6.53;5.93;;;;;;;4.17;93.39;98163.63;5064539;28;20094;-68
2020/12/04 00:22:04;;;;;;;6.30;5.22;;;;;;;4.17;93.41;98149.63;5061185;28;20343;-68
2020/12/04 00:24:29;;;;;;;6.00;5.50;;;;;;;3.80;93.75;98096.63;5065436;28;20096;-69
2020/12/04 00:26:58;;;;;;;6.38;5.45;;;;;;;4.16;93.83;98146.16;5064763;28;20072;-69
2020/12/04 00:29:24;;;;;;;5.93;5.43;;;;;;;4.10;93.77;98123.13;5063942;28;20090;-68
2020/12/04 00:31:50;;;;;;;5.70;5.20;;;;;;;4.08;93.08;98125.91;5078546;28;20123;-68
2020/12/04 00:34:15;;;;;;;6.38;5.78;;;;;;;4.19;93.49;98132.59;5063700;28;20072;-68
2020/12/04 00:36:45;;;;;;;5.70;5.20;;;;;;;4.18;93.68;98144.16;5064137;28;20033;-68
2020/12/04 00:39:10;;;;;;;6.35;5.75;;;;;;;4.20;93.57;98142.16;5065062;28;20036;-68
2020/12/04 00:41:36;;;;;;;6.10;5.25;;;;;;;4.21;93.33;98130.59;5061149;28;20526;-68
2020/12/04 00:44:01;;;;;;;5.80;5.22;;;;;;;4.21;93.56;98127.13;5061206;28;20071;-68
2020/12/04 00:46:27;;;;;;;5.88;5.38;;;;;;;4.15;93.31;98104.91;5063458;28;20078;-68
2020/12/04 00:48:53;;;;;;;5.30;4.80;;;;;;;4.20;92.76;98097.28;5064467;28;20044;-68
2020/12/04 00:51:18;;;;;;;6.13;5.35;;;;;;;4.20;92.71;98107.03;5060262;28;20784;-68
2020/12/04 00:53:44;;;;;;;6.07;5.47;;;;;;;4.17;92.47;98102.91;5062426;28;20067;-68
2020/12/04 00:56:09;;;;;;;5.70;5.15;;;;;;;4.14;93.06;98093.53;5058327;28;20070;-68
2020/12/04 00:58:35;;;;;;;7.22;5.50;;;;;;;4.17;93.21;98091.56;5052706;28;20056;-68
2020/12/04 01:01:03;;;;;;;6.25;5.65;;;;;;;4.17;92.40;98096.84;5061887;28;20790;-68
2020/12/04 01:03:29;;;;;;;5.60;5.03;;;;;;;4.15;92.26;98081.16;5064730;28;20094;-68
2020/12/04 01:05:54;;;;;;;5.78;5.28;;;;;;;4.16;92.32;98082.00;5058834;28;20930;-68
2020/12/04 01:08:20;;;;;;;5.40;4.95;;;;;;;4.08;92.03;98065.22;5060111;28;20147;-71
2020/12/04 01:10:46;;;;;;;5.63;5.07;;;;;;;4.17;92.57;98070.44;5059400;28;20342;-68
2020/12/04 01:13:12;;;;;;;5.18;4.72;;;;;;;3.85;92.50;98009.03;5059751;28;20146;-67
2020/12/04 01:15:37;;;;;;;5.90;5.40;;;;;;;4.18;nan;98067.59;5052137;28;20039;-69
2020/12/04 01:18:03;;;;;;;5.97;5.47;;;;;;;4.20;92.02;98059.53;5061788;28;20060;-69
2020/12/04 01:20:28;;;;;;;6.10;5.50;;;;;;;4.21;92.29;98051.41;5061282;28;20043;-69
2020/12/04 01:22:54;;;;;;;6.20;5.47;;;;;;;4.20;92.43;98038.41;5061805;28;20120;-69
2020/12/04 01:25:19;;;;;;;7.43;5.78;;;;;;;4.16;92.59;98040.56;5064140;28;20143;-69
2020/12/04 01:27:45;;;;;;;7.03;5.82;;;;;;;4.17;92.27;98036.13;5061393;28;20060;-69
2020/12/04 01:30:11;;;;;;;7.15;6.43;;;;;;;4.14;92.58;98034.63;5063141;28;20759;-68
2020/12/04 01:32:36;;;;;;;7.00;6.30;;;;;;;4.12;91.92;98034.84;5060982;28;20514;-68
2020/12/04 01:35:02;;;;;;;6.80;6.18;;;;;;;4.14;91.99;98026.72;5060514;28;20144;-68
2020/12/04 01:37:28;;;;;;;7.50;6.65;;;;;;;4.11;91.72;98040.31;5065170;28;20116;-69
2020/12/04 01:39:54;;;;;;;7.05;6.32;;;;;;;4.13;nan;98023.28;5060560;28;20149;-68
2020/12/04 01:42:20;;;;;;;7.65;6.85;;;;;;;4.17;91.91;98012.38;5060307;28;20474;-69
2020/12/04 01:44:46;;;;;;;7.07;6.13;;;;;;;4.07;92.21;98000.25;5064052;28;20233;-69
2020/12/04 01:47:12;;;;;;;7.85;6.40;;;;;;;4.16;92.29;98011.53;5062678;28;20259;-68
2020/12/04 01:49:38;;;;;;;8.50;6.88;;;;;;;4.20;91.72;97998.81;5060878;28;20068;-72
2020/12/04 01:52:03;;;;;;;7.60;6.90;;;;;;;4.13;92.35;97999.53;5059997;28;20071;-68
2020/12/04 01:54:29;;;;;;;7.18;6.07;;;;;;;4.17;92.01;97993.88;5060095;28;20077;-69
2020/12/04 01:56:55;;;;;;;7.43;6.60;;;;;;;4.13;92.71;97988.97;5043670;28;20043;-68
2020/12/04 01:59:20;;;;;;;8.65;6.57;;;;;;;4.09;92.73;97985.03;5044938;28;20127;-68
2020/12/04 02:01:46;;;;;;;6.68;5.97;;;;;;;4.09;92.42;97984.25;5059927;28;20127;-68
2020/12/04 02:04:15;;;;;;;6.22;5.38;;;;;;;4.13;92.64;97982.88;5063156;28;20514;-68
2020/12/04 02:06:49;;;;;;;7.18;6.45;;;;;;;4.11;93.21;97979.59;5062900;28;20075;-69
2020/12/04 02:09:23;;;;;;;7.13;6.43;;;;;;;4.10;92.73;97988.53;5056493;28;20063;-68
2020/12/04 02:11:49;;;;;;;6.38;5.70;;;;;;;4.07;92.81;97989.69;5036449;28;20024;-68
2020/12/04 02:14:15;;;;;;;6.50;5.85;;;;;;;4.10;93.47;97967.41;5043477;28;20174;-68
2020/12/04 02:16:43;;;;;;;7.28;5.97;;;;;;;3.95;93.11;97935.72;5043437;28;20033;-68
2020/12/04 02:19:09;;;;;;;5.93;5.32;;;;;;;4.05;93.19;97944.22;5045882;28;20071;-68
2020/12/04 02:21:35;;;;;;;6.35;5.57;;;;;;;4.07;93.19;97941.38;5060278;28;20056;-68
2020/12/04 02:24:00;;;;;;;5.78;5.18;;;;;;;4.04;93.66;97933.81;5054480;28;20119;-68
2020/12/04 02:26:26;;;;;;;5.95;5.35;;;;;;;3.92;93.51;97915.00;5060831;28;20029;-68
2020/12/04 02:28:52;;;;;;;5.80;5.20;;;;;;;3.97;93.73;97925.81;5053889;28;20035;-68
2020/12/04 02:31:21;;;;;;;6.72;5.88;;;;;;;3.99;93.63;97921.16;5059341;28;20115;-69
2020/12/04 02:33:47;;;;;;;5.57;5.00;;;;;;;4.01;94.00;97918.34;5060298;28;20032;-69
2020/12/04 02:36:12;;;;;;;7.68;5.60;;;;;;;4.04;93.64;97917.97;5044753;28;20106;-69
2020/12/04 02:38:38;;;;;;;6.25;5.65;;;;;;;4.07;93.62;97902.59;5063181;28;20143;-69
2020/12/04 02:41:05;;;;;;;6.00;4.70;;;;;;;4.04;92.91;97907.41;5026623;28;20068;-69
2020/12/04 02:43:31;;;;;;;6.85;5.00;;;;;;;4.05;93.81;97896.69;5062392;28;20043;-69
2020/12/04 02:45:56;;;;;;;6.20;5.47;;;;;;;4.02;93.71;97894.41;5062616;28;20135;-69
2020/12/04 02:48:22;;;;;;;6.88;5.60;;;;;;;4.06;93.50;97890.41;5061470;28;20120;-69
2020/12/04 02:50:47;;;;;;;8.45;5.85;;;;;;;4.09;93.69;97873.41;5059027;28;20616;-69
2020/12/04 02:53:13;;;;;;;7.40;5.78;;;;;;;4.10;93.78;97872.41;5060120;28;20554;-69
2020/12/04 02:55:38;;;;;;;7.78;6.13;;;;;;;4.09;93.07;97861.00;5070545;28;20941;-68
2020/12/04 02:58:04;;;;;;;6.28;5.53;;;;;;;4.05;93.24;97859.75;5061589;28;20135;-68
2020/12/04 03:00:29;;;;;;;8.23;6.07;;;;;;;4.06;94.00;97863.19;5061168;28;20235;-69
2020/12/04 03:02:55;;;;;;;7.72;6.35;;;;;;;4.06;93.56;97860.56;5048737;28;20049;-71
2020/12/04 03:05:20;;;;;;;8.32;6.45;;;;;;;4.07;93.06;97844.53;5062855;28;20127;-68
2020/12/04 03:07:46;;;;;;;6.72;6.03;;;;;;;4.10;92.68;97860.00;5061201;28;20170;-68
2020/12/04 03:10:11;;;;;;;7.45;6.10;;;;;;;4.11;93.32;97843.16;5061318;28;20136;-68
2020/12/04 03:12:37;;;;;;;8.75;5.90;;;;;;;4.10;93.18;97830.97;5058755;28;20032;-68
2020/12/04 03:15:03;;;;;;;7.60;6.35;;;;;;;4.08;93.47;97832.16;5059846;28;20028;-68
2020/12/04 03:17:29;;;;;;;7.82;6.20;;;;;;;4.05;93.41;97840.44;5061884;28;20044;-68
2020/12/04 03:19:55;;;;;;;8.60;6.90;;;;;;;4.13;92.97;97833.25;5061624;28;20033;-68
2020/12/04 03:22:20;;;;;;;7.63;6.15;;;;;;;4.04;92.30;97820.34;5055134;28;20036;-68
2020/12/04 03:24:46;;;;;;;5.97;5.13;;;;;;;4.11;91.68;97816.78;5062560;28;20059;-68
2020/12/04 03:27:11;;;;;;;6.93;5.97;;;;;;;4.12;92.66;97814.97;5062424;28;20115;-68
2020/12/04 03:29:37;;;;;;;7.72;5.55;;;;;;;4.13;92.53;97825.31;5061483;28;20112;-69
2020/12/04 03:32:02;;;;;;;6.43;5.78;;;;;;;4.13;92.60;97819.25;5058632;28;20552;-69
2020/12/04 03:34:28;;;;;;;6.63;5.70;;;;;;;4.15;92.59;97825.13;5059580;28;20120;-69
2020/12/04 03:36:54;;;;;;;7.07;5.78;;;;;;;4.20;92.49;97820.13;5062635;28;20387;-69
2020/12/04 03:39:19;;;;;;;4.47;4.07;;;;;;;4.21;92.32;97823.56;5061865;28;20487;-67
2020/12/04 03:41:45;;;;;;;5.57;4.88;;;;;;;4.24;92.05;97810.00;5058695;28;20140;-69
2020/12/04 03:44:10;;;;;;;5.85;4.70;;;;;;;4.24;92.40;97808.19;5061608;28;20131;-69
2020/12/04 03:46:36;;;;;;;5.45;4.72;;;;;;;4.25;92.46;97806.38;5066326;28;20170;-69
2020/12/04 03:49:01;;;;;;;7.10;4.75;;;;;;;4.25;92.67;97806.38;5064549;28;20242;-68
2020/12/04 03:51:27;;;;;;;4.85;4.40;;;;;;;4.23;92.83;97806.56;5062813;28;20123;-66
2020/12/04 03:53:52;;;;;;;4.97;3.35;;;;;;;4.26;92.42;97803.56;5064473;28;20135;-66
2020/12/04 03:56:18;;;;;;;4.90;4.00;;;;;;;3.81;92.24;97721.06;5063844;28;20128;-66
2020/12/04 03:58:43;;;;;;;6.28;3.55;;;;;;;4.31;92.35;97803.00;5062501;28;20119;-67
2020/12/04 04:01:09;;;;;;;4.35;3.95;;;;;;;4.29;92.41;97783.88;5054894;28;20698;-67
2020/12/04 04:03:34;;;;;;;3.78;3.38;;;;;;;4.22;91.77;97785.63;5062745;28;20631;-67
2020/12/04 04:06:00;;;;;;;3.75;3.08;;;;;;;4.36;91.54;97791.84;5040364;28;20447;-67
2020/12/04 04:08:26;;;;;;;3.30;2.92;;;;;;;4.38;91.14;97808.34;5065203;28;20048;-68
2020/12/04 04:10:51;;;;;;;3.83;3.33;;;;;;;4.36;91.11;97782.09;5062980;28;20706;-68
2020/12/04 04:13:17;;;;;;;3.30;3.00;;;;;;;4.31;91.49;97770.47;5064128;28;20132;-67
2020/12/04 04:15:42;;;;;;;2.70;2.50;;;;;;;4.40;90.89;97793.13;5064496;28;20119;-68
2020/12/04 04:18:08;;;;;;;2.70;2.50;;;;;;;4.43;90.68;97796.19;5065433;28;20465;-71
2020/12/04 04:20:33;;;;;;;2.83;2.63;;;;;;;4.46;91.24;97781.00;5063434;28;20151;-68
2020/12/04 04:22:59;;;;;;;3.28;2.65;;;;;;;4.31;91.52;97757.28;5060709;28;20115;-70
2020/12/04 04:25:24;;;;;;;2.65;2.45;;;;;;;4.46;90.64;97795.00;5064625;28;20202;-69
2020/12/04 04:27:50;;;;;;;2.75;2.45;;;;;;;4.47;90.73;97791.34;5063898;28;20169;-73
2020/12/04 04:30:15;;;;;;;4.38;2.30;;;;;;;4.52;90.80;97783.69;5064307;28;20178;-69
2020/12/04 04:32:41;;;;;;;2.90;2.70;;;;;;;4.51;90.92;97794.44;5062851;28;20166;-69
2020/12/04 04:35:07;;;;;;;3.20;2.90;;;;;;;4.52;91.33;97793.41;5062710;28;20107;-69
2020/12/04 04:37:32;;;;;;;2.65;2.45;;;;;;;4.54;90.85;97799.34;5064819;28;20242;-69
2020/12/04 04:39:58;;;;;;;2.72;2.53;;;;;;;4.56;90.52;97799.97;5063259;28;20127;-68
2020/12/04 04:42:23;;;;;;;2.58;2.38;;;;;;;4.55;90.47;97796.50;5043098;28;20064;-69
2020/12/04 04:44:49;;;;;;;2.30;2.10;;;;;;;4.49;91.00;97784.06;5064673;28;20135;-69
2020/12/04 04:47:19;;;;;;;3.15;2.20;;;;;;;4.51;90.75;97770.66;5063351;28;20086;-69
2020/12/04 04:49:47;;;;;;;2.40;2.20;;;;;;;4.53;90.56;97768.66;5061594;28;20087;-69
2020/12/04 04:52:12;;;;;;;2.47;2.28;;;;;;;4.55;90.96;97769.28;5062290;28;20037;-68
2020/12/04 04:54:41;;;;;;;2.40;2.20;;;;;;;4.49;90.57;97765.59;5064455;28;20086;-69
2020/12/04 04:57:08;;;;;;;3.17;2.30;;;;;;;4.52;91.34;97781.06;5059772;28;20095;-67
2020/12/04 04:59:34;;;;;;;2.38;2.17;;;;;;;4.56;90.55;97787.56;5061667;28;20494;-67
2020/12/04 05:01:59;;;;;;;2.13;1.98;;;;;;;4.55;90.97;97785.13;5062691;28;20119;-68
2020/12/04 05:04:25;;;;;;;3.08;2.22;;;;;;;4.57;90.92;97789.22;5064219;28;20119;-68
2020/12/04 05:06:50;;;;;;;2.53;2.30;;;;;;;4.57;91.53;97796.31;5064309;28;20612;-68
2020/12/04 05:09:28;;;;;;;6.95;2.45;;;;;;;4.59;92.20;97789.84;5061395;28;20144;-67
2020/12/04 05:11:59;;;;;;;2.80;2.60;;;;;;;4.56;91.89;97789.41;5060459;28;20494;-68
2020/12/04 05:14:25;;;;;;;2.95;2.70;;;;;;;4.56;91.98;97782.28;5057917;28;20028;-68
2020/12/04 05:16:52;;;;;;;2.95;2.72;;;;;;;4.55;92.88;97771.94;5062702;28;20064;-68
2020/12/04 05:19:30;;;;;;;2.83;2.63;;;;;;;4.56;92.02;97773.56;5063029;28;20036;-68
2020/12/04 05:21:56;;;;;;;2.83;2.50;;;;;;;4.55;91.96;97777.22;5058374;28;20479;-68
2020/12/04 05:24:28;;;;;;;2.75;2.55;;;;;;;4.55;92.61;97779.84;5062051;28;20123;-69
2020/12/04 05:26:54;;;;;;;4.03;2.42;;;;;;;4.57;92.38;97772.56;5061485;28;20044;-69
2020/12/04 05:29:19;;;;;;;3.42;2.33;;;;;;;4.60;91.43;97777.47;5061811;28;20123;-68
2020/12/04 05:31:45;;;;;;;2.50;2.30;;;;;;;4.60;91.77;97767.69;5058547;28;20109;-68
2020/12/04 05:34:21;;;;;;;4.28;2.55;;;;;;;4.62;91.68;97769.34;5061622;28;20481;-68
2020/12/04 05:36:48;;;;;;;2.75;2.53;;;;;;;4.58;91.90;97758.34;5060639;28;20031;-68
2020/12/04 05:39:13;;;;;;;3.13;2.85;;;;;;;4.59;91.36;97765.25;5063157;28;20143;-69
2020/12/04 05:41:48;;;;;;;3.42;2.60;;;;;;;4.59;92.02;97766.06;5061112;28;20174;-69
2020/12/04 05:44:16;;;;;;;2.80;2.60;;;;;;;4.63;91.39;97777.06;5061689;28;20082;-69
2020/12/04 05:46:51;;;;;;;2.47;2.28;;;;;;;4.68;90.75;97776.53;5061652;28;20032;-69
2020/12/04 05:49:16;;;;;;;2.15;2.00;;;;;;;4.67;90.73;97764.31;5062408;28;20024;-69
2020/12/04 05:51:42;;;;;;;4.35;2.60;;;;;;;4.71;91.39;97770.81;5036265;28;20108;-69
2020/12/04 05:54:08;;;;;;;2.25;2.05;;;;;;;4.50;90.82;97753.19;5061516;28;20546;-69
2020/12/04 05:56:33;;;;;;;2.70;2.50;;;;;;;4.78;91.03;97777.00;5051738;28;20064;-68
2020/12/04 05:59:01;;;;;;;3.78;2.42;;;;;;;4.75;91.35;97782.66;5060003;28;20506;-68
2020/12/04 06:01:26;;;;;;;2.73;2.50;;;;;;;4.77;90.28;97780.66;5059649;28;20487;-68
2020/12/04 06:03:55;;;;;;;2.60;2.40;;;;;;;4.81;90.56;97786.38;5062393;28;20459;-70
2020/12/04 06:06:30;;;;;;;3.00;2.58;;;;;;;4.86;89.80;97784.78;5060583;28;20033;-68
2020/12/04 06:08:57;;;;;;;2.22;2.03;;;;;;;4.90;89.56;97774.63;5062026;28;20044;-68
2020/12/04 06:11:23;;;;;;;4.13;2.50;;;;;;;4.87;89.97;97786.41;5054995;28;20040;-68
2020/12/04 06:13:49;;;;;;;2.97;2.22;;;;;;;4.68;90.15;97766.75;5054005;28;20121;-68
2020/12/04 06:16:15;;;;;;;2.95;2.10;;;;;;;4.87;90.18;97783.78;5063695;28;20044;-72
2020/12/04 06:18:43;;;;;;;2.17;1.98;;;;;;;4.88;90.16;97790.69;5061963;28;20044;-72
2020/12/04 06:21:08;;;;;;;2.65;2.45;;;;;;;4.84;89.95;97784.16;5061081;28;20132;-72
2020/12/04 06:23:34;;;;;;;2.97;2.45;;;;;;;4.98;89.65;97782.44;5042334;28;20128;-68
2020/12/04 06:26:02;;;;;;;4.25;2.70;;;;;;;4.96;90.21;97800.31;5060681;28;20094;-72
2020/12/04 06:28:32;;;;;;;2.60;2.40;;;;;;;4.70;90.48;97758.63;5062133;28;20124;-68
2020/12/04 06:31:06;;;;;;;3.38;2.30;;;;;;;4.94;90.18;97807.59;5043740;28;20032;-68
2020/12/04 06:33:45;;;;;;;2.70;2.15;;;;;;;5.01;90.92;97810.31;5059280;28;20071;-68
2020/12/04 06:36:30;;;;;;;2.40;2.05;;;;;;;5.04;89.97;97813.38;5076444;28;20355;-69
2020/12/04 06:38:55;;;;;;;2.50;2.30;;;;;;;5.11;89.99;97810.78;5059551;28;20565;-69
2020/12/04 06:41:33;;;;;;;2.53;2.25;;;;;;;5.12;89.33;97798.38;5054006;28;20039;-69
2020/12/04 06:43:59;;;;;;;2.47;1.80;;;;;;;5.22;89.82;97810.25;5068660;28;20075;-69
2020/12/04 06:46:32;;;;;;;2.65;1.80;;;;;;;5.32;89.54;97822.31;5061733;28;20029;-68
2020/12/04 06:49:09;;;;;;;2.13;1.92;;;;;;;5.33;88.96;97821.31;5060196;28;20053;-68
2020/12/04 06:51:41;;;;;;;1.67;1.58;;;;;;;5.30;89.20;97816.41;5060194;28;20029;-69
2020/12/04 06:54:07;;;;;;;2.25;2.05;;;;;;;5.27;88.81;97828.19;5063476;28;20079;-71
2020/12/04 06:56:35;;;;;;;1.80;1.70;;;;;;;5.44;88.72;97854.31;5064927;28;20548;-69
2020/12/04 06:59:01;;;;;;;;;;;;;;;5.48;88.38;97874.09;5063180;28;20036;-69
2020/12/04 07:01:26;;;;;;;2.30;1.70;;;;;;;5.49;88.86;97859.84;5050610;28;19928;-69
2020/12/04 07:03:55;;;;;;;1.95;1.67;;;;;;;5.08;88.98;97787.41;5061349;28;20064;-69
2020/12/04 07:06:24;;;;;;;7.88;2.25;;;;;;;5.51;89.07;97861.28;5062036;28;20624;-68
2020/12/04 07:08:57;;;;;;;2.33;1.85;;;;;;;5.50;89.69;97862.28;5039843;28;20198;-68
2020/12/04 07:11:25;;;;;;;2.30;1.52;;;;;;;5.52;88.99;97880.63;5059304;28;20887;-68
2020/12/04 07:13:51;;;;;;;1.85;1.67;;;;;;;5.55;88.72;97888.19;5043171;28;20064;-69
2020/12/04 07:16:17;;;;;;;1.40;1.30;;;;;;;5.57;88.80;97882.69;5062517;28;20032;-68
2020/12/04 07:18:46;;;;;;;2.50;1.55;;;;;;;5.44;88.73;97875.47;5062975;28;20519;-69
2020/12/04 07:21:11;;;;;;;1.30;1.20;;;;;;;5.60;88.81;97900.84;5046152;28;20372;-72
2020/12/04 07:23:37;;;;;;;1.55;1.30;;;;;;;5.52;87.68;97881.44;5066067;28;20471;-69
2020/12/04 07:26:04;;;;;;;2.10;1.23;;;;;;;5.77;85.52;97906.63;5074695;28;20368;-72
2020/12/04 07:28:31;;;;;;;3.08;0.88;;;;;;;5.82;86.37;97910.34;5064937;28;20549;-69
2020/12/04 07:30:56;;;;;;;1.27;0.80;;;;;;;5.81;84.62;97899.94;5070211;28;20719;-68
2020/12/04 07:33:22;;;;;;;2.05;0.60;;;;;;;5.78;84.33;97879.16;5071198;28;20129;-70
2020/12/04 07:35:47;;;;;;;1.20;0.60;;;;;;;6.04;83.25;97920.06;5070769;28;20115;-69
2020/12/04 07:38:13;;;;;;;1.98;0.50;;;;;;;6.08;82.71;97938.00;5065889;28;20120;-69
2020/12/04 07:40:40;;;;;;;2.70;0.68;;;;;;;6.13;81.18;97946.19;5063767;28;20131;-69
2020/12/04 07:43:10;;;;;;;1.15;0.63;;;;;;;6.19;82.08;97935.81;5063348;28;20587;-68
2020/12/04 07:45:39;;;;;;;0.85;0.50;;;;;;;6.08;81.75;97922.09;5063899;28;20051;-70
2020/12/04 07:48:08;;;;;;;1.52;0.75;;;;;;;6.08;81.20;97927.41;5060245;28;20044;-69
2020/12/04 07:50:33;;;;;;;1.88;0.80;;;;;;;6.16;80.94;97939.66;5064260;28;20116;-70
2020/12/04 07:52:59;;;;;;;0.50;0.40;;;;;;;6.16;81.03;97936.22;5041759;28;20064;-70
2020/12/04 07:55:24;;;;;;;0.90;0.45;;;;;;;6.01;80.97;97923.09;5067222;28;20566;-69
2020/12/04 07:58:04;;;;;;;0.73;0.57;;;;;;;6.18;80.90;97976.53;5030190;28;20131;-72
2020/12/04 08:00:31;;;;;;;1.60;0.57;;;;;;;6.06;80.04;97960.38;5068038;28;20032;-73
2020/12/04 08:03:13;;;;;;;1.48;0.50;;;;;;;6.27;80.41;97975.38;5058694;28;20127;-72
2020/12/04 08:05:39;;;;;;;2.15;0.60;;;;;;;6.25;80.65;97967.63;5060758;28;20028;-72
2020/12/04 08:08:05;;;;;;;1.35;0.70;;;;;;;6.29;80.99;97973.34;5058591;28;20043;-68
2020/12/04 08:10:30;;;;;;;0.75;0.40;;;;;;;6.30;81.59;98001.47;5063743;28;20111;-68
2020/12/04 08:12:56;;;;;;;1.13;0.50;;;;;;;6.32;81.12;97988.84;5060867;28;20043;-69
2020/12/04 08:15:22;;;;;;;2.80;0.88;;;;;;;6.35;81.30;98004.34;5065032;28;20105;-69
2020/12/04 08:17:47;;;;;;;2.75;0.68;;;;;;;6.42;80.53;98013.16;5059422;28;20119;-69
2020/12/04 08:20:17;;;;;;;1.83;0.90;;;;;;;6.44;81.10;98028.84;5063741;28;20525;-69
2020/12/04 08:22:47;;;;;;;2.38;0.60;;;;;;;6.42;79.70;98041.47;5058907;28;20140;-69
2020/12/04 08:25:13;;;;;;;1.35;0.55;;;;;;;6.40;80.73;98046.97;5062831;28;20075;-69
2020/12/04 08:27:42;;;;;;;3.03;0.50;;;;;;;6.39;80.47;98057.75;5063177;28;20082;-67
2020/12/04 08:30:16;;;;;;;1.40;0.63;;;;;;;6.38;80.79;98056.94;5060310;28;20409;-68
2020/12/04 08:32:46;;;;;;;2.45;1.05;;;;;;;6.37;80.78;98065.09;5059105;28;20052;-68
2020/12/04 08:35:18;;;;;;;2.50;0.55;;;;;;;6.40;80.73;98076.09;5059330;28;20028;-68
2020/12/04 08:37:45;;;;;;;0.85;0.60;;;;;;;6.43;80.58;98075.72;5060738;28;20033;-68
2020/12/04 08:40:25;;;;;;;3.10;0.93;;;;;;;6.00;81.37;98009.63;5060641;28;20135;-69
2020/12/04 08:42:51;;;;;;;1.23;0.90;;;;;;;6.49;80.14;98081.25;5059963;28;20032;-68
2020/12/04 08:45:16;;;;;;;2.47;0.90;;;;;;;6.52;79.58;98086.97;5060241;28;20066;-68
2020/12/04 08:47:46;;;;;;;2.80;0.90;;;;;;;6.59;80.06;98095.78;5066996;28;20375;-68
2020/12/04 08:50:16;;;;;;;1.02;0.80;;;;;;;6.07;79.60;98005.19;5056239;28;20073;-68
2020/12/04 08:52:52;;;;;;;1.73;0.80;;;;;;;6.65;78.87;98099.50;5058984;28;20027;-68
2020/12/04 08:55:25;;;;;;;1.30;0.93;;;;;;;6.65;79.25;98106.63;5058520;28;20060;-69
2020/12/04 08:57:52;;;;;;;1.50;0.80;;;;;;;6.65;78.60;98102.13;5057852;28;20048;-69
2020/12/04 09:00:20;;;;;;;3.63;0.93;;;;;;;6.62;78.66;98117.63;5057745;28;20046;-69
2020/12/04 09:02:46;;;;;;;1.42;0.80;;;;;;;6.51;78.96;98092.47;5057780;28;20040;-69
2020/12/04 09:05:13;;;;;;;1.08;0.90;;;;;;;6.59;78.37;98116.97;5056543;28;20815;-69
2020/12/04 09:07:39;;;;;;;0.70;0.60;;;;;;;6.48;78.74;98087.56;5057751;28;20064;-68
2020/12/04 09:10:05;;;;;;;2.35;0.73;;;;;;;6.53;79.27;98109.81;5059915;28;20066;-68
2020/12/04 09:12:31;;;;;;;5.03;1.10;;;;;;;6.53;78.52;98127.53;5061651;28;20386;-68
2020/12/04 09:14:56;;;;;;;1.25;0.88;;;;;;;6.46;79.17;98131.97;5058543;28;20127;-68
2020/12/04 09:17:22;;;;;;;2.00;0.85;;;;;;;6.49;79.39;98131.56;5057992;28;20120;-68
2020/12/04 09:19:47;;;;;;;2.22;1.70;;;;;;;6.46;79.44;98127.50;5058861;28;20120;-68
2020/12/04 09:22:14;;;;;;;2.72;1.90;;;;;;;5.83;79.37;98043.50;5056649;28;20131;-68
2020/12/04 09:24:40;;;;;;;2.25;1.20;;;;;;;6.43;79.06;98139.31;5058435;28;20036;-68
2020/12/04 09:27:05;;;;;;;2.08;0.90;;;;;;;6.45;78.99;98135.66;5055031;28;20024;-69
2020/12/04 09:29:31;;;;;;;1.58;0.90;;;;;;;6.50;78.99;98146.47;5060001;28;20064;-69
2020/12/04 09:31:56;;;;;;;1.33;0.80;;;;;;;6.52;78.91;98150.56;5052849;28;20028;-68
2020/12/04 09:34:22;;;;;;;1.38;0.80;;;;;;;6.49;78.70;98150.13;5054387;28;20131;-68
2020/12/04 09:36:51;;;;;;;2.50;0.90;;;;;;;6.53;79.20;98154.84;5060273;28;20120;-68
2020/12/04 09:39:18;;;;;;;2.67;1.00;;;;;;;6.53;79.46;98170.75;5060705;28;20041;-68
2020/12/04 09:41:44;;;;;;;3.38;0.82;;;;;;;6.53;78.93;98170.75;5055743;28;20434;-68
2020/12/04 09:44:10;;;;;;;2.65;1.50;;;;;;;6.54;79.52;98176.88;5053149;28;20071;-68
2020/12/04 09:46:35;;;;;;;2.35;1.20;;;;;;;6.32;78.08;98158.34;5057756;28;20184;-68
2020/12/04 09:49:01;;;;;;;1.80;1.00;;;;;;;6.55;78.56;98186.47;5058392;28;20072;-68
2020/12/04 09:51:26;;;;;;;1.75;1.00;;;;;;;6.60;79.08;98197.28;5057442;28;20131;-68
2020/12/04 09:53:52;;;;;;;1.42;0.80;;;;;;;6.54;77.65;98200.72;5061392;28;20139;-67
2020/12/04 09:56:18;;;;;;;1.45;0.80;;;;;;;6.43;78.81;98181.69;5058394;28;20573;-68
2020/12/04 09:58:43;;;;;;;1.05;0.80;;;;;;;6.57;78.00;98203.00;5053722;28;20115;-68
2020/12/04 10:01:11;;;;;;;2.25;1.00;;;;;;;6.55;78.84;98195.22;5055054;28;22312;-68
2020/12/04 10:03:37;;;;;;;1.05;0.90;;;;;;;6.57;78.55;98203.78;5026385;28;20048;-68
2020/12/04 10:06:03;;;;;;;5.47;1.95;;;;;;;6.58;79.22;98201.97;5055698;28;20162;-68
2020/12/04 10:08:28;;;;;;;4.43;2.20;;;;;;;6.63;79.04;98199.56;5057402;28;20127;-68
2020/12/04 10:10:54;;;;;;;3.28;1.23;;;;;;;6.62;78.90;98200.56;5053617;28;20283;-69
2020/12/04 10:13:19;;;;;;;2.35;0.90;;;;;;;6.63;78.72;98202.22;5063764;28;20182;-69
2020/12/04 10:15:45;;;;;;;1.95;1.17;;;;;;;6.64;78.30;98211.00;5065276;28;20130;-69
2020/12/04 10:18:12;;;;;;;2.20;0.90;;;;;;;6.64;78.50;98203.03;5058390;28;20424;-69
2020/12/04 10:20:37;;;;;;;1.27;0.80;;;;;;;6.28;78.51;98141.22;5057806;28;20053;-69
2020/12/04 10:23:04;;;;;;;1.75;1.20;;;;;;;6.69;78.47;98225.31;5056612;28;20145;-69
2020/12/04 10:25:29;;;;;;;3.95;1.80;;;;;;;6.52;78.12;98198.25;5051450;28;20132;-68
2020/12/04 10:27:55;;;;;;;2.13;1.10;;;;;;;6.66;77.46;98230.97;5057344;28;21580;-68
2020/12/04 10:30:20;;;;;;;1.00;0.90;;;;;;;6.71;77.01;98231.25;5060563;28;20127;-68
2020/12/04 10:32:46;;;;;;;1.30;1.00;;;;;;;6.71;76.63;98233.88;5057977;28;20521;-68
2020/12/04 10:35:11;;;;;;;1.45;0.88;;;;;;;6.77;77.01;98239.41;5058416;28;20131;-68
2020/12/04 10:37:37;;;;;;;2.08;0.77;;;;;;;6.82;76.18;98234.38;5052565;28;20504;-68
2020/12/04 10:40:03;;;;;;;1.20;0.95;;;;;;;6.70;76.62;98232.25;5055746;28;20131;-68
2020/12/04 10:42:28;;;;;;;4.80;1.75;;;;;;;6.79;76.38;98243.50;5056274;28;20033;-68
2020/12/04 10:44:54;;;;;;;2.55;1.67;;;;;;;6.83;76.61;98233.34;5063079;28;20067;-69
2020/12/04 10:47:19;;;;;;;2.55;0.90;;;;;;;6.87;76.23;98242.53;5062326;28;20182;-69
2020/12/04 10:49:45;;;;;;;3.38;0.90;;;;;;;6.89;76.04;98238.72;5058133;28;20461;-67
2020/12/04 10:52:10;;;;;;;2.58;0.93;;;;;;;6.91;76.10;98243.81;5060308;28;20107;-67
2020/12/04 10:54:36;;;;;;;4.15;1.80;;;;;;;6.93;76.95;98251.56;5057711;28;20545;-68
2020/12/04 10:57:01;;;;;;;2.63;1.70;;;;;;;6.94;76.33;98248.72;5058876;28;20129;-68
2020/12/04 10:59:27;;;;;;;6.55;3.10;;;;;;;6.94;76.83;98259.34;5058965;28;20763;-68
2020/12/04 11:01:58;;;;;;;4.05;1.00;;;;;;;6.93;76.40;98256.84;5058254;28;20304;-68
2020/12/04 11:07:07;;;;;;;1.27;0.98;;;;;;;6.90;76.51;98247.47;5060484;28;20189;-68
2020/12/04 11:09:33;;;;;;;1.77;1.17;;;;;;;6.92;76.47;98257.91;5060779;28;20127;-69
2020/12/04 11:11:58;;;;;;;2.38;1.13;;;;;;;6.96;75.70;98259.13;5056406;28;20111;-68
2020/12/04 11:14:24;;;;;;;1.27;0.90;;;;;;;7.00;75.58;98263.03;5060363;28;20123;-68
2020/12/04 11:16:49;;;;;;;1.70;0.98;;;;;;;6.95;75.26;98262.78;5042300;28;20175;-69
2020/12/04 11:19:16;;;;;;;1.75;0.90;;;;;;;6.82;75.04;98266.97;5059993;28;20040;-69
2020/12/04 11:21:41;;;;;;;3.50;1.00;;;;;;;6.97;74.78;98269.56;5056389;28;20128;-69
2020/12/04 11:24:07;;;;;;;5.32;0.80;;;;;;;6.98;75.21;98265.91;5056417;28;20593;-68
2020/12/04 11:26:32;;;;;;;2.08;0.82;;;;;;;6.99;74.49;98274.66;5060315;28;20452;-70
2020/12/04 11:28:58;;;;;;;1.58;1.05;;;;;;;7.02;74.37;98284.88;5080175;28;20127;-69
2020/12/04 11:31:24;;;;;;;1.33;1.00;;;;;;;7.03;74.06;98282.03;5057261;28;20033;-68
2020/12/04 11:33:49;;;;;;;1.20;1.00;;;;;;;7.09;73.80;98295.53;5060559;28;20119;-69
2020/12/04 11:36:15;;;;;;;4.63;0.93;;;;;;;7.05;73.37;98287.97;5061520;28;20175;-69
2020/12/04 11:38:40;;;;;;;2.90;1.08;;;;;;;7.07;74.04;98286.94;5064212;28;20131;-69
2020/12/04 11:41:07;;;;;;;2.13;1.00;;;;;;;7.06;74.40;98288.75;5060578;28;20164;-71